Terminal Aerodrome Forecast
Issued by NWS

Home | Current Version | Previous Version | Text Only | Print | Product List | Glossary On
Versions: 1 2 3 4 5 6 7 8 9 10 11 12 13 14 15 16
000
FTUS41 KILN 091908 AAA
TAFLCK
TAF AMD
KLCK 091908Z 0919/1018 26012KT P6SM -SHSN OVC025
     FM092300 26005KT P6SM OVC040
     FM100800 24004KT P6SM SCT035 BKN120
     FM101400 24008KT P6SM BKN080
      AMD NOT SKED=

USA.gov is the U.S. government's official web portal to all federal, state and local government web resources and services.